Sandnes, Norway

12:17 PM CEST on September 21, 2019 (GMT +0200)
Sandnes Sentrum | | Change Station

Elev 60 ft 58.86 °N, 5.73 °E | Updated 4 seconds ago

Partly Cloudy
Partly Cloudy
59.2 °F
Feels Like 59.2 °F
N
0
Wind Variable Wind from SSW
Gusts 0.0 mph

Today
High -- | Low -- °F
--% Chance of Precip.
Yesterday
High -- | Low -- °F
Precip. -- in
Pressure 30.15 in
Visibility 6.2 miles
Clouds Scattered Clouds 100 ft
Mostly Cloudy 500 ft
Dew Point 55 °F
Humidity 86%
Rainfall 0.01 in
Snow Depth Not available.
7:18 AM 7:40 PM
Waning Gibbous, 57% visible
METAR ENZV 210950Z 27007KT 9999 2000SW R18/P2000N R36/P2000D R11/P2000N PRFG SCT001 BKN005 13/11 Q1021 TEMPO 0300 FG VV001
Pressure 30.15 in
Visibility 6.2 miles
Clouds Scattered Clouds 100 ft
Mostly Cloudy 500 ft
Dew Point 55 °F
Humidity 86%
Rainfall 0.01 in
Snow Depth Not available.
7:18 AM 7:40 PM
Waning Gibbous, 57% visible
METAR ENZV 210950Z 27007KT 9999 2000SW R18/P2000N R36/P2000D R11/P2000N PRFG SCT001 BKN005 13/11 Q1021 TEMPO 0300 FG VV001

Get Severe Weather Alerts

Thanks for signing up!

Be on the lookout for a verification email in your inbox.

You'll start receiving the daily forecast at 6 AM.

×

10-Day Weather Forecast

×

Almanac

Astronomy

Sep. 21, 2019 Rise Set
Actual Time
Civil Twilight
Nautical Twilight
Astronomical Twilight
Moon
Length of Visible Light
Length of Day
Tomorrow will be .
, % of the Moon is Illuminated

Today's Extremes

Country Highs Country Lows

Community

WunderPhotos

Category 6

Welcome to Category 6. This is the collective home for Weather Underground's featured writeups by Dr. Jeff Masters (right), Bob Henson (left), Chris Burt, and other regular contributors.

Nearby

Air Quality

  Air Quality AQ Index Pollutant
Not available.

Snow Depth

Station Depth Elevation

Earthquake Activity

City Distance Mag. Time & Date
Minimum magnitude displayed is 2.5.

Coastal Water Temperatures

Place Temperature

Stations

Nearby Weather Stations

Station Location Temp. Windchill Dew Point Humidity Wind Precip. Elev Updated Type